sensor_id;sensor_type;location;lat;lon;timestamp;pressure;altitude;pressure_sealevel;temperature;humidity
72685;BME280;61365;52.162;4.500;2023-04-30T00:02:18;102380.75;;;8.97;78.77
72685;BME280;61365;52.162;4.500;2023-04-30T00:04:44;102374.56;;;8.95;79.11
72685;BME280;61365;52.162;4.500;2023-04-30T00:07:11;102373.63;;;8.93;79.21
72685;BME280;61365;52.162;4.500;2023-04-30T00:09:37;102378.31;;;9.03;78.55
72685;BME280;61365;52.162;4.500;2023-04-30T00:12:03;102377.63;;;9.10;78.39
72685;BME280;61365;52.162;4.500;2023-04-30T00:14:30;102379.16;;;9.02;78.60
72685;BME280;61365;52.162;4.500;2023-04-30T00:16:56;102382.31;;;8.92;79.30
72685;BME280;61365;52.162;4.500;2023-04-30T00:19:22;102384.06;;;8.91;79.88
72685;BME280;61365;52.162;4.500;2023-04-30T00:21:48;102383.88;;;9.14;78.96
72685;BME280;61365;52.162;4.500;2023-04-30T00:24:14;102383.88;;;9.14;78.91
72685;BME280;61365;52.162;4.500;2023-04-30T00:26:40;102389.63;;;9.02;79.32
72685;BME280;61365;52.162;4.500;2023-04-30T00:29:09;102390.06;;;8.89;79.81
72685;BME280;61365;52.162;4.500;2023-04-30T00:31:35;102389.09;;;8.85;80.30
72685;BME280;61365;52.162;4.500;2023-04-30T00:34:01;102382.84;;;8.80;80.43
72685;BME280;61365;52.162;4.500;2023-04-30T00:36:27;102380.13;;;8.77;80.80
72685;BME280;61365;52.162;4.500;2023-04-30T00:38:53;102371.22;;;8.71;81.04
72685;BME280;61365;52.162;4.500;2023-04-30T00:41:20;102382.25;;;8.61;81.33
72685;BME280;61365;52.162;4.500;2023-04-30T00:43:48;102384.25;;;8.68;81.68
72685;BME280;61365;52.162;4.500;2023-04-30T00:46:14;102377.13;;;8.64;81.43
72685;BME280;61365;52.162;4.500;2023-04-30T00:48:40;102380.28;;;8.54;81.12
72685;BME280;61365;52.162;4.500;2023-04-30T00:51:06;102384.78;;;8.58;81.33
72685;BME280;61365;52.162;4.500;2023-04-30T00:53:33;102389.81;;;8.52;81.49
72685;BME280;61365;52.162;4.500;2023-04-30T00:55:59;102388.53;;;8.40;81.69
72685;BME280;61365;52.162;4.500;2023-04-30T00:58:25;102387.34;;;8.56;80.47
72685;BME280;61365;52.162;4.500;2023-04-30T01:00:52;102381.78;;;8.47;81.92
72685;BME280;61365;52.162;4.500;2023-04-30T01:03:18;102387.75;;;8.43;82.32
72685;BME280;61365;52.162;4.500;2023-04-30T01:05:45;102386.44;;;8.56;81.92
72685;BME280;61365;52.162;4.500;2023-04-30T01:08:11;102383.41;;;8.44;81.77
72685;BME280;61365;52.162;4.500;2023-04-30T01:10:40;102379.97;;;8.45;81.76
72685;BME280;61365;52.162;4.500;2023-04-30T01:13:31;102388.66;;;8.44;81.79
72685;BME280;61365;52.162;4.500;2023-04-30T01:16:06;102392.88;;;8.40;82.62
72685;BME280;61365;52.162;4.500;2023-04-30T01:18:58;102386.31;;;8.51;82.33
72685;BME280;61365;52.162;4.500;2023-04-30T01:21:29;102393.78;;;8.40;81.89
72685;BME280;61365;52.162;4.500;2023-04-30T01:26:38;102393.59;;;8.36;83.68
72685;BME280;61365;52.162;4.500;2023-04-30T01:29:27;102388.97;;;8.27;83.61
72685;BME280;61365;52.162;4.500;2023-04-30T01:31:54;102391.94;;;8.38;83.07
72685;BME280;61365;52.162;4.500;2023-04-30T01:34:20;102395.22;;;8.56;82.89
72685;BME280;61365;52.162;4.500;2023-04-30T01:36:52;102398.09;;;8.40;82.64
72685;BME280;61365;52.162;4.500;2023-04-30T01:47:33;102399.84;;;8.39;83.43
72685;BME280;61365;52.162;4.500;2023-04-30T01:52:31;102396.97;;;8.32;84.26
72685;BME280;61365;52.162;4.500;2023-04-30T01:55:19;102404.16;;;8.39;84.09
72685;BME280;61365;52.162;4.500;2023-04-30T01:57:55;102401.19;;;8.28;84.21
72685;BME280;61365;52.162;4.500;2023-04-30T02:00:27;102400.63;;;8.37;84.12
72685;BME280;61365;52.162;4.500;2023-04-30T02:02:57;102395.72;;;8.48;83.58
72685;BME280;61365;52.162;4.500;2023-04-30T02:05:24;102391.78;;;8.33;83.96
72685;BME280;61365;52.162;4.500;2023-04-30T02:07:51;102394.66;;;8.15;85.07
72685;BME280;61365;52.162;4.500;2023-04-30T02:10:19;102391.94;;;8.38;84.56
72685;BME280;61365;52.162;4.500;2023-04-30T02:12:49;102384.75;;;8.31;83.95
72685;BME280;61365;52.162;4.500;2023-04-30T02:15:15;102382.78;;;8.25;84.30
72685;BME280;61365;52.162;4.500;2023-04-30T02:17:41;102378.97;;;8.15;84.46
72685;BME280;61365;52.162;4.500;2023-04-30T02:20:08;102387.03;;;8.21;84.98
72685;BME280;61365;52.162;4.500;2023-04-30T02:22:35;102387.75;;;8.17;84.02
72685;BME280;61365;52.162;4.500;2023-04-30T02:25:02;102389.41;;;8.14;85.83
72685;BME280;61365;52.162;4.500;2023-04-30T02:27:29;102396.81;;;8.27;84.64
72685;BME280;61365;52.162;4.500;2023-04-30T02:29:56;102392.31;;;8.23;84.62
72685;BME280;61365;52.162;4.500;2023-04-30T02:32:23;102385.72;;;8.08;85.43
72685;BME280;61365;52.162;4.500;2023-04-30T02:34:50;102383.00;;;8.05;85.92
72685;BME280;61365;52.162;4.500;2023-04-30T02:37:16;102383.72;;;8.27;85.11
72685;BME280;61365;52.162;4.500;2023-04-30T02:39:44;102384.53;;;8.24;84.59
72685;BME280;61365;52.162;4.500;2023-04-30T02:42:11;102380.38;;;8.05;85.55
72685;BME280;61365;52.162;4.500;2023-04-30T02:44:37;102384.56;;;8.00;85.87
72685;BME280;61365;52.162;4.500;2023-04-30T02:47:03;102387.72;;;8.16;84.71
72685;BME280;61365;52.162;4.500;2023-04-30T02:49:30;102380.81;;;8.18;84.89
72685;BME280;61365;52.162;4.500;2023-04-30T02:51:56;102382.06;;;8.03;85.29
72685;BME280;61365;52.162;4.500;2023-04-30T02:54:22;102381.94;;;8.00;85.26
72685;BME280;61365;52.162;4.500;2023-04-30T02:56:48;102380.28;;;8.02;85.28
72685;BME280;61365;52.162;4.500;2023-04-30T02:59:14;102390.34;;;8.16;85.03
72685;BME280;61365;52.162;4.500;2023-04-30T03:01:40;102381.47;;;8.12;84.39
72685;BME280;61365;52.162;4.500;2023-04-30T03:04:07;102382.38;;;8.13;84.66
72685;BME280;61365;52.162;4.500;2023-04-30T03:06:33;102383.94;;;8.07;85.08
72685;BME280;61365;52.162;4.500;2023-04-30T03:08:59;102382.16;;;8.06;84.22
72685;BME280;61365;52.162;4.500;2023-04-30T03:11:26;102388.38;;;7.84;85.94
72685;BME280;61365;52.162;4.500;2023-04-30T03:13:52;102387.34;;;7.79;86.78
72685;BME280;61365;52.162;4.500;2023-04-30T03:16:18;102382.69;;;7.96;85.68
72685;BME280;61365;52.162;4.500;2023-04-30T03:18:46;102392.41;;;8.00;85.57
72685;BME280;61365;52.162;4.500;2023-04-30T03:21:13;102387.59;;;7.87;85.69
72685;BME280;61365;52.162;4.500;2023-04-30T03:23:40;102385.16;;;7.91;85.96
72685;BME280;61365;52.162;4.500;2023-04-30T03:26:07;102385.69;;;7.81;86.54
72685;BME280;61365;52.162;4.500;2023-04-30T03:28:33;102372.41;;;7.76;86.31
72685;BME280;61365;52.162;4.500;2023-04-30T03:31:00;102375.59;;;7.68;87.14
72685;BME280;61365;52.162;4.500;2023-04-30T03:33:30;102368.94;;;7.51;87.71
72685;BME280;61365;52.162;4.500;2023-04-30T03:35:57;102371.66;;;7.55;87.71
72685;BME280;61365;52.162;4.500;2023-04-30T03:38:23;102375.00;;;7.50;88.35
72685;BME280;61365;52.162;4.500;2023-04-30T03:40:49;102374.75;;;7.44;88.25
72685;BME280;61365;52.162;4.500;2023-04-30T03:43:15;102377.47;;;7.47;88.60
72685;BME280;61365;52.162;4.500;2023-04-30T03:45:41;102372.69;;;7.35;88.84
72685;BME280;61365;52.162;4.500;2023-04-30T03:48:08;102372.50;;;7.54;88.50
72685;BME280;61365;52.162;4.500;2023-04-30T03:50:34;102369.31;;;7.62;88.21
72685;BME280;61365;52.162;4.500;2023-04-30T03:53:00;102371.63;;;7.53;88.28
72685;BME280;61365;52.162;4.500;2023-04-30T03:55:26;102377.78;;;7.55;88.35
72685;BME280;61365;52.162;4.500;2023-04-30T03:57:52;102376.84;;;7.53;87.59
72685;BME280;61365;52.162;4.500;2023-04-30T04:00:19;102373.44;;;7.56;87.88
72685;BME280;61365;52.162;4.500;2023-04-30T04:02:45;102375.44;;;7.39;88.36
72685;BME280;61365;52.162;4.500;2023-04-30T04:05:11;102368.53;;;7.41;88.14
72685;BME280;61365;52.162;4.500;2023-04-30T04:07:37;102362.94;;;7.54;88.35
72685;BME280;61365;52.162;4.500;2023-04-30T04:10:04;102361.53;;;7.40;88.03
72685;BME280;61365;52.162;4.500;2023-04-30T04:12:30;102356.44;;;7.43;87.54
72685;BME280;61365;52.162;4.500;2023-04-30T04:14:56;102355.75;;;7.48;87.96
72685;BME280;61365;52.162;4.500;2023-04-30T04:17:22;102356.06;;;7.56;86.86
72685;BME280;61365;52.162;4.500;2023-04-30T04:19:49;102358.72;;;7.58;87.28
72685;BME280;61365;52.162;4.500;2023-04-30T04:22:15;102362.03;;;7.54;86.69
72685;BME280;61365;52.162;4.500;2023-04-30T04:24:41;102369.13;;;7.56;86.62
72685;BME280;61365;52.162;4.500;2023-04-30T04:27:07;102372.28;;;7.72;86.37
72685;BME280;61365;52.162;4.500;2023-04-30T04:29:33;102367.88;;;7.46;86.09
72685;BME280;61365;52.162;4.500;2023-04-30T04:31:59;102365.44;;;7.51;87.03
72685;BME280;61365;52.162;4.500;2023-04-30T04:34:27;102366.19;;;7.48;86.92
72685;BME280;61365;52.162;4.500;2023-04-30T04:36:53;102372.94;;;7.66;86.83
72685;BME280;61365;52.162;4.500;2023-04-30T04:39:19;102361.28;;;7.82;85.12
72685;BME280;61365;52.162;4.500;2023-04-30T04:41:45;102367.47;;;7.84;84.82
72685;BME280;61365;52.162;4.500;2023-04-30T04:44:11;102379.13;;;8.20;83.79
72685;BME280;61365;52.162;4.500;2023-04-30T04:46:37;102378.91;;;8.65;81.12
72685;BME280;61365;52.162;4.500;2023-04-30T04:49:06;102383.44;;;8.71;81.12
72685;BME280;61365;52.162;4.500;2023-04-30T04:51:32;102382.41;;;8.66;80.92
72685;BME280;61365;52.162;4.500;2023-04-30T04:53:59;102384.69;;;8.82;80.40
72685;BME280;61365;52.162;4.500;2023-04-30T04:56:25;102389.72;;;8.76;80.43
72685;BME280;61365;52.162;4.500;2023-04-30T04:58:51;102385.13;;;8.69;80.69
72685;BME280;61365;52.162;4.500;2023-04-30T05:01:18;102379.56;;;9.16;79.71
72685;BME280;61365;52.162;4.500;2023-04-30T05:03:44;102384.25;;;9.58;78.18
72685;BME280;61365;52.162;4.500;2023-04-30T05:06:10;102386.63;;;9.81;76.75
72685;BME280;61365;52.162;4.500;2023-04-30T05:08:36;102384.66;;;9.74;76.64
72685;BME280;61365;52.162;4.500;2023-04-30T05:11:03;102380.41;;;10.11;75.21
72685;BME280;61365;52.162;4.500;2023-04-30T05:13:29;102380.25;;;10.39;74.52
72685;BME280;61365;52.162;4.500;2023-04-30T05:15:55;102379.09;;;10.29;74.15
72685;BME280;61365;52.162;4.500;2023-04-30T05:18:22;102385.78;;;10.16;74.92
72685;BME280;61365;52.162;4.500;2023-04-30T05:20:48;102388.47;;;10.52;72.85
72685;BME280;61365;52.162;4.500;2023-04-30T05:23:14;102394.81;;;10.62;72.77
72685;BME280;61365;52.162;4.500;2023-04-30T05:25:40;102388.75;;;11.03;72.13
72685;BME280;61365;52.162;4.500;2023-04-30T05:28:06;102389.72;;;10.69;71.79
72685;BME280;61365;52.162;4.500;2023-04-30T05:30:32;102382.50;;;10.58;72.38
72685;BME280;61365;52.162;4.500;2023-04-30T05:32:59;102382.94;;;10.40;72.60
72685;BME280;61365;52.162;4.500;2023-04-30T05:35:25;102395.16;;;10.40;72.96
72685;BME280;61365;52.162;4.500;2023-04-30T05:37:51;102391.53;;;10.71;71.63
72685;BME280;61365;52.162;4.500;2023-04-30T05:40:17;102389.09;;;10.79;71.03
72685;BME280;61365;52.162;4.500;2023-04-30T05:42:43;102385.06;;;10.57;71.36
72685;BME280;61365;52.162;4.500;2023-04-30T05:45:09;102391.47;;;10.34;72.85
72685;BME280;61365;52.162;4.500;2023-04-30T05:47:39;102396.13;;;11.21;70.85
72685;BME280;61365;52.162;4.500;2023-04-30T05:50:06;102399.84;;;11.31;68.91
72685;BME280;61365;52.162;4.500;2023-04-30T05:52:32;102401.75;;;11.38;68.52
72685;BME280;61365;52.162;4.500;2023-04-30T05:54:58;102405.75;;;11.64;68.08
72685;BME280;61365;52.162;4.500;2023-04-30T05:57:25;102403.09;;;12.07;65.86
72685;BME280;61365;52.162;4.500;2023-04-30T05:59:51;102411.19;;;11.73;67.16
72685;BME280;61365;52.162;4.500;2023-04-30T06:02:18;102407.53;;;12.11;65.42
72685;BME280;61365;52.162;4.500;2023-04-30T06:04:44;102401.16;;;12.47;64.65
72685;BME280;61365;52.162;4.500;2023-04-30T06:07:12;102403.94;;;12.58;64.73
72685;BME280;61365;52.162;4.500;2023-04-30T06:09:38;102396.53;;;12.90;63.60
72685;BME280;61365;52.162;4.500;2023-04-30T06:12:05;102399.47;;;13.14;62.45
72685;BME280;61365;52.162;4.500;2023-04-30T06:14:31;102410.91;;;13.16;61.64
72685;BME280;61365;52.162;4.500;2023-04-30T06:16:57;102402.66;;;13.54;59.81
72685;BME280;61365;52.162;4.500;2023-04-30T06:19:23;102403.13;;;13.25;61.62
72685;BME280;61365;52.162;4.500;2023-04-30T06:21:49;102403.41;;;13.44;61.30
72685;BME280;61365;52.162;4.500;2023-04-30T06:24:16;102400.69;;;13.39;61.31
72685;BME280;61365;52.162;4.500;2023-04-30T06:26:42;102401.75;;;12.89;62.71
72685;BME280;61365;52.162;4.500;2023-04-30T06:29:08;102401.50;;;12.70;64.42
72685;BME280;61365;52.162;4.500;2023-04-30T06:31:34;102397.63;;;13.08;62.77
72685;BME280;61365;52.162;4.500;2023-04-30T06:34:00;102401.41;;;14.03;60.32
72685;BME280;61365;52.162;4.500;2023-04-30T06:36:26;102392.91;;;14.41;58.39
72685;BME280;61365;52.162;4.500;2023-04-30T06:38:52;102391.59;;;13.91;59.67
72685;BME280;61365;52.162;4.500;2023-04-30T06:41:18;102399.19;;;13.58;60.91
72685;BME280;61365;52.162;4.500;2023-04-30T06:43:45;102403.88;;;13.15;62.88
72685;BME280;61365;52.162;4.500;2023-04-30T06:46:11;102405.09;;;12.75;62.92
72685;BME280;61365;52.162;4.500;2023-04-30T06:48:39;102401.75;;;12.86;63.63
72685;BME280;61365;52.162;4.500;2023-04-30T06:51:05;102403.66;;;12.99;63.50
72685;BME280;61365;52.162;4.500;2023-04-30T06:53:31;102401.78;;;12.90;63.11
72685;BME280;61365;52.162;4.500;2023-04-30T06:55:57;102401.31;;;13.19;61.74
72685;BME280;61365;52.162;4.500;2023-04-30T06:58:23;102412.88;;;12.69;62.06
72685;BME280;61365;52.162;4.500;2023-04-30T07:00:50;102407.78;;;12.79;63.61
72685;BME280;61365;52.162;4.500;2023-04-30T07:03:16;102410.56;;;12.89;63.53
72685;BME280;61365;52.162;4.500;2023-04-30T07:05:43;102408.06;;;12.99;62.56
72685;BME280;61365;52.162;4.500;2023-04-30T07:08:09;102411.72;;;13.10;62.20
72685;BME280;61365;52.162;4.500;2023-04-30T07:10:35;102407.31;;;13.07;62.58
72685;BME280;61365;52.162;4.500;2023-04-30T07:13:02;102408.75;;;13.48;61.67
72685;BME280;61365;52.162;4.500;2023-04-30T07:15:28;102403.31;;;13.39;62.50
72685;BME280;61365;52.162;4.500;2023-04-30T07:17:54;102404.00;;;13.98;61.03
72685;BME280;61365;52.162;4.500;2023-04-30T07:20:20;102409.81;;;13.68;61.11
72685;BME280;61365;52.162;4.500;2023-04-30T07:22:46;102405.53;;;13.76;61.62
72685;BME280;61365;52.162;4.500;2023-04-30T07:25:12;102412.78;;;14.00;60.32
72685;BME280;61365;52.162;4.500;2023-04-30T07:27:39;102412.38;;;13.58;60.80
72685;BME280;61365;52.162;4.500;2023-04-30T07:30:05;102417.66;;;13.58;60.74
72685;BME280;61365;52.162;4.500;2023-04-30T07:32:35;102409.06;;;13.78;61.71
72685;BME280;61365;52.162;4.500;2023-04-30T07:35:02;102409.50;;;14.20;61.82
72685;BME280;61365;52.162;4.500;2023-04-30T07:37:29;102410.91;;;14.85;59.25
72685;BME280;61365;52.162;4.500;2023-04-30T07:39:55;102417.22;;;15.19;57.56
72685;BME280;61365;52.162;4.500;2023-04-30T07:42:21;102415.13;;;14.66;59.74
72685;BME280;61365;52.162;4.500;2023-04-30T07:44:48;102415.28;;;14.85;58.31
72685;BME280;61365;52.162;4.500;2023-04-30T07:47:14;102405.69;;;14.96;58.64
72685;BME280;61365;52.162;4.500;2023-04-30T07:49:40;102406.09;;;14.35;59.84
72685;BME280;61365;52.162;4.500;2023-04-30T07:52:06;102409.13;;;14.86;58.92
72685;BME280;61365;52.162;4.500;2023-04-30T07:54:35;102409.66;;;14.43;61.38
72685;BME280;61365;52.162;4.500;2023-04-30T07:57:03;102409.19;;;14.95;57.97
72685;BME280;61365;52.162;4.500;2023-04-30T07:59:30;102397.75;;;14.98;59.40
72685;BME280;61365;52.162;4.500;2023-04-30T08:01:56;102401.25;;;14.94;59.16
72685;BME280;61365;52.162;4.500;2023-04-30T08:04:23;102401.22;;;14.91;61.41
72685;BME280;61365;52.162;4.500;2023-04-30T08:06:49;102395.09;;;14.96;60.00
72685;BME280;61365;52.162;4.500;2023-04-30T08:09:15;102390.69;;;14.95;59.71
72685;BME280;61365;52.162;4.500;2023-04-30T08:11:41;102404.19;;;15.64;57.15
72685;BME280;61365;52.162;4.500;2023-04-30T08:14:07;102397.22;;;15.98;55.78
72685;BME280;61365;52.162;4.500;2023-04-30T08:16:33;102397.88;;;15.26;58.17
72685;BME280;61365;52.162;4.500;2023-04-30T08:19:00;102392.22;;;14.61;60.97
72685;BME280;61365;52.162;4.500;2023-04-30T08:21:26;102404.97;;;15.30;57.55
72685;BME280;61365;52.162;4.500;2023-04-30T08:23:53;102394.47;;;15.55;57.14
72685;BME280;61365;52.162;4.500;2023-04-30T08:26:19;102407.69;;;15.53;57.22
72685;BME280;61365;52.162;4.500;2023-04-30T08:28:46;102404.13;;;15.46;57.68
72685;BME280;61365;52.162;4.500;2023-04-30T08:31:12;102408.31;;;14.98;57.57
72685;BME280;61365;52.162;4.500;2023-04-30T08:33:38;102399.78;;;15.64;58.68
72685;BME280;61365;52.162;4.500;2023-04-30T08:36:05;102400.78;;;16.14;56.92
72685;BME280;61365;52.162;4.500;2023-04-30T08:38:31;102404.19;;;15.59;57.86
72685;BME280;61365;52.162;4.500;2023-04-30T08:41:07;102399.03;;;16.27;53.49
72685;BME280;61365;52.162;4.500;2023-04-30T08:43:36;102399.91;;;16.08;52.99
72685;BME280;61365;52.162;4.500;2023-04-30T08:46:02;102400.78;;;16.03;57.06
72685;BME280;61365;52.162;4.500;2023-04-30T08:48:30;102405.19;;;16.00;53.38
72685;BME280;61365;52.162;4.500;2023-04-30T08:51:02;102407.81;;;15.92;53.68
72685;BME280;61365;52.162;4.500;2023-04-30T08:53:29;102403.28;;;15.58;56.35
72685;BME280;61365;52.162;4.500;2023-04-30T08:55:59;102399.03;;;16.19;54.85
72685;BME280;61365;52.162;4.500;2023-04-30T08:58:25;102402.56;;;16.35;53.47
72685;BME280;61365;52.162;4.500;2023-04-30T09:00:51;102394.59;;;16.08;55.78
72685;BME280;61365;52.162;4.500;2023-04-30T09:03:17;102397.25;;;16.60;52.10
72685;BME280;61365;52.162;4.500;2023-04-30T09:05:46;102399.00;;;16.02;56.37
72685;BME280;61365;52.162;4.500;2023-04-30T09:08:15;102388.41;;;16.40;54.99
72685;BME280;61365;52.162;4.500;2023-04-30T09:10:43;102395.47;;;16.50;52.39
72685;BME280;61365;52.162;4.500;2023-04-30T09:13:09;102393.63;;;15.70;54.73
72685;BME280;61365;52.162;4.500;2023-04-30T09:15:37;102392.78;;;16.83;54.11
72685;BME280;61365;52.162;4.500;2023-04-30T09:20:36;102387.50;;;16.72;52.74
72685;BME280;61365;52.162;4.500;2023-04-30T09:23:04;102396.38;;;16.33;56.50
72685;BME280;61365;52.162;4.500;2023-04-30T09:25:40;102392.81;;;16.73;53.76
72685;BME280;61365;52.162;4.500;2023-04-30T09:30:35;102386.50;;;17.16;55.67
72685;BME280;61365;52.162;4.500;2023-04-30T09:33:01;102392.78;;;16.81;54.12
72685;BME280;61365;52.162;4.500;2023-04-30T09:35:30;102382.22;;;16.64;56.30
72685;BME280;61365;52.162;4.500;2023-04-30T09:38:00;102382.22;;;16.47;54.29
72685;BME280;61365;52.162;4.500;2023-04-30T09:40:34;102376.88;;;16.96;55.01
72685;BME280;61365;52.162;4.500;2023-04-30T09:43:01;102385.63;;;17.17;55.10
72685;BME280;61365;52.162;4.500;2023-04-30T09:45:44;102387.34;;;17.32;52.55
72685;BME280;61365;52.162;4.500;2023-04-30T09:48:19;102380.41;;;16.86;52.43
72685;BME280;61365;52.162;4.500;2023-04-30T09:50:47;102383.03;;;17.11;54.84
72685;BME280;61365;52.162;4.500;2023-04-30T09:53:16;102380.34;;;17.16;54.52
72685;BME280;61365;52.162;4.500;2023-04-30T09:55:44;102374.94;;;17.37;53.28
72685;BME280;61365;52.162;4.500;2023-04-30T09:58:14;102371.28;;;17.60;51.67
72685;BME280;61365;52.162;4.500;2023-04-30T10:00:42;102373.03;;;17.63;52.09
72685;BME280;61365;52.162;4.500;2023-04-30T10:03:11;102371.53;;;17.04;54.37
72685;BME280;61365;52.162;4.500;2023-04-30T10:05:42;102376.84;;;17.03;54.74
72685;BME280;61365;52.162;4.500;2023-04-30T10:11:08;102362.66;;;17.18;54.56
72685;BME280;61365;52.162;4.500;2023-04-30T10:14:02;102353.88;;;16.91;55.75
72685;BME280;61365;52.162;4.500;2023-04-30T10:16:39;102356.66;;;16.16;56.89
72685;BME280;61365;52.162;4.500;2023-04-30T10:19:15;102353.09;;;16.48;54.75
72685;BME280;61365;52.162;4.500;2023-04-30T10:21:49;102362.78;;;16.62;54.96
72685;BME280;61365;52.162;4.500;2023-04-30T10:24:17;102361.00;;;16.67;54.26
72685;BME280;61365;52.162;4.500;2023-04-30T10:26:48;102349.44;;;16.93;57.22
72685;BME280;61365;52.162;4.500;2023-04-30T10:29:16;102349.94;;;17.77;55.53
72685;BME280;61365;52.162;4.500;2023-04-30T10:31:46;102350.19;;;17.34;55.77
72685;BME280;61365;52.162;4.500;2023-04-30T10:34:18;102342.09;;;17.57;55.80
72685;BME280;61365;52.162;4.500;2023-04-30T10:36:55;102350.34;;;16.83;54.69
72685;BME280;61365;52.162;4.500;2023-04-30T10:39:25;102350.19;;;17.29;53.57
72685;BME280;61365;52.162;4.500;2023-04-30T10:42:04;102343.28;;;16.99;51.74
72685;BME280;61365;52.162;4.500;2023-04-30T10:44:32;102334.31;;;17.26;54.54
72685;BME280;61365;52.162;4.500;2023-04-30T10:47:00;102343.16;;;17.23;51.58
72685;BME280;61365;52.162;4.500;2023-04-30T10:49:27;102337.06;;;16.93;50.89
72685;BME280;61365;52.162;4.500;2023-04-30T10:51:53;102330.91;;;16.87;52.92
72685;BME280;61365;52.162;4.500;2023-04-30T10:54:23;102333.53;;;17.04;50.87
72685;BME280;61365;52.162;4.500;2023-04-30T10:56:52;102321.31;;;16.33;53.28
72685;BME280;61365;52.162;4.500;2023-04-30T10:59:21;102324.88;;;16.30;52.16
72685;BME280;61365;52.162;4.500;2023-04-30T11:01:59;102324.72;;;16.88;51.11
72685;BME280;61365;52.162;4.500;2023-04-30T11:04:26;102316.72;;;17.11;51.55
72685;BME280;61365;52.162;4.500;2023-04-30T11:09:19;102315.09;;;16.63;49.99
72685;BME280;61365;52.162;4.500;2023-04-30T11:11:52;102308.03;;;16.44;52.81
72685;BME280;61365;52.162;4.500;2023-04-30T11:14:30;102301.84;;;16.63;52.53
72685;BME280;61365;52.162;4.500;2023-04-30T11:16:58;102305.44;;;16.38;52.79
72685;BME280;61365;52.162;4.500;2023-04-30T11:19:26;102305.38;;;16.61;53.12
72685;BME280;61365;52.162;4.500;2023-04-30T11:27:22;102294.56;;;17.20;51.59
72685;BME280;61365;52.162;4.500;2023-04-30T11:29:50;102286.72;;;16.83;52.50
72685;BME280;61365;52.162;4.500;2023-04-30T11:32:20;102274.41;;;16.71;51.67
72685;BME280;61365;52.162;4.500;2023-04-30T11:34:49;102277.72;;;17.27;55.01
72685;BME280;61365;52.162;4.500;2023-04-30T11:37:19;102272.69;;;16.59;54.24
72685;BME280;61365;52.162;4.500;2023-04-30T11:39:46;102272.69;;;16.56;54.38
72685;BME280;61365;52.162;4.500;2023-04-30T11:42:19;102269.13;;;16.69;55.17
72685;BME280;61365;52.162;4.500;2023-04-30T11:44:46;102274.25;;;17.13;51.61
72685;BME280;61365;52.162;4.500;2023-04-30T11:47:12;102268.19;;;16.84;51.15
72685;BME280;61365;52.162;4.500;2023-04-30T11:49:40;102254.13;;;16.65;56.37
72685;BME280;61365;52.162;4.500;2023-04-30T11:52:07;102266.25;;;17.20;55.59
72685;BME280;61365;52.162;4.500;2023-04-30T11:54:37;102255.94;;;16.50;54.06
72685;BME280;61365;52.162;4.500;2023-04-30T11:57:04;102259.41;;;16.71;54.81
72685;BME280;61365;52.162;4.500;2023-04-30T11:59:31;102249.72;;;16.58;53.12
72685;BME280;61365;52.162;4.500;2023-04-30T12:02:05;102244.28;;;16.89;55.03
72685;BME280;61365;52.162;4.500;2023-04-30T12:04:32;102249.56;;;16.93;53.01
72685;BME280;61365;52.162;4.500;2023-04-30T12:06:59;102248.56;;;17.19;50.98
72685;BME280;61365;52.162;4.500;2023-04-30T12:09:25;102247.97;;;16.49;53.36
72685;BME280;61365;52.162;4.500;2023-04-30T12:11:51;102240.88;;;16.65;54.71
72685;BME280;61365;52.162;4.500;2023-04-30T12:14:17;102234.72;;;16.58;56.47
72685;BME280;61365;52.162;4.500;2023-04-30T12:16:44;102235.28;;;17.25;53.03
72685;BME280;61365;52.162;4.500;2023-04-30T12:19:19;102227.13;;;17.52;52.80
72685;BME280;61365;52.162;4.500;2023-04-30T12:21:47;102236.09;;;17.37;50.54
72685;BME280;61365;52.162;4.500;2023-04-30T12:24:15;102227.31;;;17.22;50.96
72685;BME280;61365;52.162;4.500;2023-04-30T12:26:42;102232.00;;;16.75;50.53
72685;BME280;61365;52.162;4.500;2023-04-30T12:29:16;102232.97;;;16.42;52.41
72685;BME280;61365;52.162;4.500;2023-04-30T12:31:44;102225.69;;;16.93;52.12
72685;BME280;61365;52.162;4.500;2023-04-30T12:34:13;102219.28;;;17.38;51.00
72685;BME280;61365;52.162;4.500;2023-04-30T12:36:40;102219.44;;;17.15;52.26
72685;BME280;61365;52.162;4.500;2023-04-30T12:39:08;102215.94;;;17.03;53.03
72685;BME280;61365;52.162;4.500;2023-04-30T12:41:53;102213.28;;;17.03;53.31
72685;BME280;61365;52.162;4.500;2023-04-30T12:44:24;102223.06;;;16.96;53.48
72685;BME280;61365;52.162;4.500;2023-04-30T12:46:53;102212.28;;;17.24;52.73
72685;BME280;61365;52.162;4.500;2023-04-30T12:49:22;102195.56;;;17.11;55.94
72685;BME280;61365;52.162;4.500;2023-04-30T12:51:59;102210.78;;;16.71;51.72
72685;BME280;61365;52.162;4.500;2023-04-30T12:54:34;102201.88;;;16.86;51.58
72685;BME280;61365;52.162;4.500;2023-04-30T12:57:02;102199.28;;;16.81;53.77
72685;BME280;61365;52.162;4.500;2023-04-30T12:59:30;102198.38;;;16.80;52.41
72685;BME280;61365;52.162;4.500;2023-04-30T13:02:07;102193.88;;;17.03;54.55
72685;BME280;61365;52.162;4.500;2023-04-30T13:04:35;102188.53;;;17.07;52.77
72685;BME280;61365;52.162;4.500;2023-04-30T13:07:02;102197.38;;;17.11;53.46
72685;BME280;61365;52.162;4.500;2023-04-30T13:09:31;102181.91;;;17.61;50.69
72685;BME280;61365;52.162;4.500;2023-04-30T13:11:59;102187.69;;;17.02;53.02
72685;BME280;61365;52.162;4.500;2023-04-30T13:14:25;102191.78;;;17.47;49.35
72685;BME280;61365;52.162;4.500;2023-04-30T13:16:52;102170.66;;;17.36;52.38
72685;BME280;61365;52.162;4.500;2023-04-30T13:19:21;102172.53;;;17.23;52.94
72685;BME280;61365;52.162;4.500;2023-04-30T13:21:47;102168.53;;;17.72;49.23
72685;BME280;61365;52.162;4.500;2023-04-30T13:24:14;102168.81;;;17.46;50.31
72685;BME280;61365;52.162;4.500;2023-04-30T13:26:40;102169.69;;;17.45;49.07